Alonsa, Canada
Current Conditions -  °F | °C
As of 2:00 PM on Monday 24 Nov 2014 (Local Time) from CYDN Reporting Station
Overcast Overcast  
Wind Chill:   Ceiling: 4400
Heat Index: 14°   Visibility: 9mi
Dew Point:   Wind: 12mph
Humidity: 57%   Direction: 270°W
Pressure: 29.92"   Gusts: NA
Location:  50.8°N, 98.98°W
Report Text: CYDN 242000Z AUTO 27010KT 9SM OVC044 M10/M17 A2992 RMK SLP161
Loading
Personal Weather Stations






























Interactive Weather Map New forecast layout! Learn more

10-Day Weather Forecast

Advertisements
Track Severe Weather on mobile